Time;durP1;ratioP1;P1;durP2;ratioP2;P2;SDS_P1;SDS_P2;PMS_P1;PMS_P2;Temp;Humidity;BMP_temperature;BMP_pressure;BME280_temperature;BME280_humidity;BME280_pressure;Samples;Min_cycle;Max_cycle;Signal;HPM_P1;HPM_P2
2022/03/05 00:00:41;;;;;;;24.50;10.70;;;;;;;-5.53;56.57;99818.09;5094922;28;20066;-51
2022/03/05 00:03:12;;;;;;;23.52;10.85;;;;;;;-5.52;57.84;99822.38;5094464;28;20271;-53
2022/03/05 00:06:01;;;;;;;28.30;10.77;;;;;;;-5.40;58.07;99779.56;5094406;28;20070;-52
2022/03/05 00:08:49;;;;;;;20.00;10.15;;;;;;;-5.24;56.78;99822.69;5094641;28;20051;-53
2022/03/05 00:11:38;;;;;;;20.17;10.52;;;;;;;-5.75;56.94;99740.84;5093401;28;20086;-51
2022/03/05 00:14:26;;;;;;;23.05;11.48;;;;;;;-5.22;56.47;99828.72;5092076;28;20168;-53
2022/03/05 00:17:13;;;;;;;23.23;10.65;;;;;;;-5.10;56.91;99820.66;5093831;28;20109;-53
2022/03/05 00:20:01;;;;;;;26.80;12.88;;;;;;;-4.59;57.42;99822.59;5093639;28;20300;-53
2022/03/05 00:22:52;;;;;;;19.90;10.27;;;;;;;-3.99;57.30;99823.06;5092925;28;20239;-53
2022/03/05 00:25:39;;;;;;;20.00;9.38;;;;;;;-3.55;56.65;99810.06;5093591;28;20067;-52
2022/03/05 00:28:10;;;;;;;25.60;11.50;;;;;;;-3.25;56.16;99805.06;5092889;28;20044;-52
2022/03/05 00:31:00;;;;;;;23.00;9.57;;;;;;;-2.91;55.27;99801.88;5093620;28;20050;-54
2022/03/05 00:33:47;;;;;;;29.52;11.98;;;;;;;-2.63;54.22;99800.13;5092847;28;20046;-51
2022/03/05 00:36:18;;;;;;;11.68;6.22;;;;;;;-2.93;51.78;99800.94;5093204;28;20047;-52
2022/03/05 00:38:50;;;;;;;15.70;7.97;;;;;;;-2.86;53.20;99784.09;5093280;28;20140;-54
2022/03/05 00:41:21;;;;;;;14.18;7.57;;;;;;;-2.65;53.60;99784.72;5093343;28;20098;-52
2022/03/05 00:43:52;;;;;;;17.83;8.80;;;;;;;-2.51;54.34;99715.19;5093298;28;20363;-55
2022/03/05 00:46:40;;;;;;;19.15;9.48;;;;;;;-1.78;52.69;99758.06;5093302;28;20048;-55
2022/03/05 00:49:27;;;;;;;13.15;7.07;;;;;;;-1.60;50.86;99769.59;5090551;28;20230;-51
2022/03/05 00:52:15;;;;;;;13.07;6.90;;;;;;;-1.67;50.15;99765.13;5090954;28;20130;-50
2022/03/05 00:54:47;;;;;;;15.73;7.53;;;;;;;-1.83;50.37;99749.41;5093362;28;20084;-52
2022/03/05 00:57:18;;;;;;;12.30;7.53;;;;;;;-1.89;50.09;99754.38;5092833;28;20075;-50
2022/03/05 00:59:49;;;;;;;13.15;7.45;;;;;;;-2.02;49.98;99757.44;5094140;28;20040;-50
2022/03/05 01:02:19;;;;;;;14.88;7.47;;;;;;;-2.13;50.46;99753.72;5093619;28;20063;-53
2022/03/05 01:05:07;;;;;;;13.85;7.05;;;;;;;-2.06;51.22;99755.63;5094325;28;20059;-51
2022/03/05 01:07:38;;;;;;;7.25;4.20;;;;;;;-2.17;49.73;99748.53;5093530;28;20044;-50
2022/03/05 01:10:11;;;;;;;9.35;4.82;;;;;;;-1.86;49.67;99746.75;5093687;28;20102;-53
2022/03/05 01:12:42;;;;;;;9.95;6.07;;;;;;;-1.35;51.16;99745.41;5093667;28;20111;-52
2022/03/05 01:15:29;;;;;;;15.57;8.27;;;;;;;-0.77;51.24;99753.56;5093700;28;20055;-51
2022/03/05 01:18:00;;;;;;;11.38;6.63;;;;;;;-0.57;50.47;99748.84;5093736;28;20052;-50
2022/03/05 01:20:31;;;;;;;13.20;6.85;;;;;;;-0.81;48.18;99736.34;5093997;28;20070;-53
2022/03/05 01:23:19;;;;;;;5.57;3.75;;;;;;;-1.10;46.01;99728.88;5092861;28;20090;-56
2022/03/05 01:26:08;;;;;;;5.50;3.53;;;;;;;-1.05;47.00;99737.53;5093537;28;20070;-52
2022/03/05 01:28:39;;;;;;;6.88;3.45;;;;;;;-0.78;46.32;99736.41;5015064;28;20355;-53
2022/03/05 01:31:26;;;;;;;8.00;4.78;;;;;;;-0.53;46.86;99743.75;5033505;28;20085;-53
2022/03/05 01:34:13;;;;;;;9.45;5.32;;;;;;;-1.12;48.49;99602.38;5033415;28;20095;-51
2022/03/05 01:36:44;;;;;;;7.63;4.45;;;;;;;-0.19;47.22;99747.00;5033551;28;20065;-54
2022/03/05 01:39:32;;;;;;;9.85;5.20;;;;;;;0.11;48.07;99748.41;5033520;28;20084;-54
2022/03/05 01:42:04;;;;;;;9.90;4.97;;;;;;;0.25;46.48;99731.53;5033453;28;20108;-53
2022/03/05 01:44:35;;;;;;;10.65;4.82;;;;;;;0.54;46.20;99729.38;5035022;28;20060;-53
2022/03/05 01:47:22;;;;;;;8.70;4.63;;;;;;;0.66;44.47;99728.72;5037395;28;20064;-53
2022/03/05 01:49:53;;;;;;;11.70;6.15;;;;;;;0.85;45.91;99714.44;5036999;28;20067;-54
2022/03/05 01:52:23;;;;;;;10.85;4.82;;;;;;;0.92;43.78;99730.78;5037341;28;20061;-50
2022/03/05 01:54:54;;;;;;;9.55;4.30;;;;;;;0.95;44.59;99720.53;5037104;28;20049;-54
2022/03/05 01:57:26;;;;;;;8.65;4.30;;;;;;;1.02;45.56;99723.25;5036902;28;20049;-53
2022/03/05 01:59:58;;;;;;;25.08;12.55;;;;;;;1.16;44.68;99715.69;5034849;28;20270;-53
2022/03/05 02:02:28;;;;;;;27.20;14.77;;;;;;;0.93;44.30;99722.25;5036083;28;20133;-56
2022/03/05 02:04:59;;;;;;;19.63;10.88;;;;;;;0.58;44.23;99720.03;5035172;28;20045;-54
2022/03/05 02:07:30;;;;;;;8.20;4.30;;;;;;;0.28;44.33;99713.56;5036109;28;20317;-53
2022/03/05 02:10:01;;;;;;;5.50;3.38;;;;;;;0.28;44.53;99708.44;5036685;28;20585;-53
2022/03/05 02:12:35;;;;;;;5.43;3.40;;;;;;;-0.11;45.60;99619.59;5036282;28;20061;-54
2022/03/05 02:15:07;;;;;;;8.10;4.00;;;;;;;0.31;45.00;99692.19;5035214;28;20053;-53
2022/03/05 02:17:38;;;;;;;8.82;4.07;;;;;;;0.26;45.22;99707.53;5036328;28;20084;-53
2022/03/05 02:20:10;;;;;;;8.45;4.65;;;;;;;-0.31;43.70;99649.22;5036185;28;20251;-54
2022/03/05 02:22:42;;;;;;;7.47;3.90;;;;;;;0.08;43.90;99712.38;5036515;28;20144;-53
2022/03/05 02:25:13;;;;;;;4.00;2.78;;;;;;;0.25;41.82;99715.22;5036207;28;20076;-53
2022/03/05 02:27:46;;;;;;;4.43;2.05;;;;;;;0.42;41.39;99706.94;5036095;28;20045;-51
2022/03/05 02:30:16;;;;;;;3.13;1.88;;;;;;;0.62;38.49;99712.41;5036094;28;20149;-53
2022/03/05 02:32:47;;;;;;;3.22;1.63;;;;;;;0.54;38.63;99718.25;5036346;28;20116;-52
2022/03/05 02:35:18;;;;;;;2.70;1.80;;;;;;;0.32;36.97;99697.34;5035673;28;20264;-51
2022/03/05 02:37:50;;;;;;;2.83;1.88;;;;;;;0.02;35.94;99700.28;5036046;28;20357;-51
2022/03/05 02:40:21;;;;;;;2.75;1.92;;;;;;;-0.16;37.47;99695.69;5034927;28;20053;-52
2022/03/05 02:42:51;;;;;;;1.77;1.55;;;;;;;-0.24;37.32;99697.25;5034927;28;20084;-53
2022/03/05 02:45:22;;;;;;;2.55;1.80;;;;;;;-0.28;37.54;99692.91;5035763;28;20112;-51
2022/03/05 02:47:53;;;;;;;2.65;2.10;;;;;;;-0.19;37.82;99679.38;5035271;28;20080;-50
2022/03/05 02:50:24;;;;;;;4.68;1.98;;;;;;;-0.23;37.07;99686.16;5035908;28;20053;-53
2022/03/05 02:52:56;;;;;;;2.72;1.95;;;;;;;-0.22;37.41;99672.50;5035571;28;20266;-52
2022/03/05 02:55:27;;;;;;;2.10;1.90;;;;;;;-0.35;37.91;99681.69;5035236;28;20113;-52
2022/03/05 02:57:58;;;;;;;1.70;1.60;;;;;;;-0.31;38.61;99678.31;5034470;28;20383;-50
2022/03/05 03:00:28;;;;;;;1.35;1.25;;;;;;;-0.63;36.66;99677.72;5036101;28;20053;-52
2022/03/05 03:02:59;;;;;;;2.78;1.98;;;;;;;-0.90;39.49;99665.19;5036014;28;20120;-53
2022/03/05 03:05:30;;;;;;;1.90;1.70;;;;;;;-1.26;38.86;99616.63;5035893;28;20095;-53
2022/03/05 03:08:02;;;;;;;3.00;1.92;;;;;;;-0.82;40.61;99673.03;5035295;28;20057;-51
2022/03/05 03:10:34;;;;;;;1.98;1.52;;;;;;;-0.72;38.26;99659.59;5035568;28;20053;-49
2022/03/05 03:13:04;;;;;;;1.98;1.70;;;;;;;-0.85;39.38;99663.59;5035758;28;20108;-51
2022/03/05 03:15:35;;;;;;;2.47;1.80;;;;;;;-0.81;38.88;99674.78;5035457;28;20088;-53
2022/03/05 03:18:06;;;;;;;3.30;1.90;;;;;;;-0.89;39.29;99667.81;5034969;28;20329;-53
2022/03/05 03:20:36;;;;;;;2.80;1.75;;;;;;;-1.07;37.60;99662.31;5034269;28;20061;-53
2022/03/05 03:23:09;;;;;;;2.40;1.77;;;;;;;-0.92;39.60;99656.63;5035331;28;20463;-50
2022/03/05 03:25:40;;;;;;;1.95;1.60;;;;;;;-0.95;38.99;99641.16;5035248;28;20092;-55
2022/03/05 03:28:11;;;;;;;2.13;1.60;;;;;;;-1.17;38.24;99624.50;5034100;28;20088;-53
2022/03/05 03:30:41;;;;;;;3.67;1.85;;;;;;;-1.03;38.97;99658.09;5035118;28;20124;-52
2022/03/05 03:33:12;;;;;;;2.70;1.73;;;;;;;-1.06;39.32;99653.78;5034912;28;20267;-54
2022/03/05 03:35:43;;;;;;;2.83;2.10;;;;;;;-1.09;40.41;99648.59;5035064;28;20251;-52
2022/03/05 03:38:15;;;;;;;2.55;1.50;;;;;;;-1.11;38.50;99645.13;5034982;28;20100;-53
2022/03/05 03:40:46;;;;;;;2.67;1.63;;;;;;;-1.23;39.91;99598.72;5035130;28;20350;-53
2022/03/05 03:43:16;;;;;;;3.33;1.80;;;;;;;-0.69;40.58;99654.50;5035212;28;20068;-54
2022/03/05 03:45:47;;;;;;;2.03;1.80;;;;;;;-0.78;37.91;99644.06;5035009;28;20409;-52
2022/03/05 03:48:17;;;;;;;1.80;1.55;;;;;;;-1.20;38.39;99637.22;5034867;28;20137;-53
2022/03/05 03:50:48;;;;;;;4.70;2.00;;;;;;;-1.31;39.88;99624.19;5035272;28;20125;-51
2022/03/05 03:53:21;;;;;;;3.20;1.70;;;;;;;-1.63;40.49;99572.28;5034539;28;20097;-51
2022/03/05 03:55:51;;;;;;;2.70;1.60;;;;;;;-1.39;40.65;99626.59;5034558;28;20144;-50
2022/03/05 03:58:22;;;;;;;2.67;1.83;;;;;;;-1.53;40.83;99579.31;5034537;28;20064;-52
2022/03/05 04:00:53;;;;;;;2.08;1.73;;;;;;;-1.67;41.47;99516.66;5034525;28;20077;-52
2022/03/05 04:03:23;;;;;;;2.17;1.77;;;;;;;-1.02;41.25;99598.28;5034940;28;20350;-52
2022/03/05 04:05:54;;;;;;;2.00;1.73;;;;;;;-0.77;41.94;99595.38;5034406;28;20050;-54
2022/03/05 04:08:44;;;;;;;2.83;1.70;;;;;;;-0.75;40.49;99587.69;5033977;28;20068;-52
2022/03/05 04:11:16;;;;;;;2.33;1.70;;;;;;;-0.76;40.09;99580.84;5034827;28;20087;-52
2022/03/05 04:13:47;;;;;;;3.83;2.10;;;;;;;-0.88;40.42;99577.19;5033910;28;20073;-53
2022/03/05 04:16:18;;;;;;;1.90;1.50;;;;;;;-0.79;40.70;99565.41;5034407;28;20140;-53
2022/03/05 04:18:49;;;;;;;4.80;2.13;;;;;;;-1.25;42.79;99472.22;5033711;28;20057;-52
2022/03/05 04:21:19;;;;;;;1.70;1.60;;;;;;;-0.57;41.50;99552.09;5033600;28;20056;-52
2022/03/05 04:23:52;;;;;;;3.70;2.00;;;;;;;-0.72;41.60;99542.44;5034342;28;20064;-54
2022/03/05 04:26:23;;;;;;;3.05;1.70;;;;;;;-0.75;40.28;99549.19;5034011;28;20068;-50
2022/03/05 04:28:53;;;;;;;2.00;1.73;;;;;;;-0.68;41.18;99556.16;5034245;28;20089;-54
2022/03/05 04:31:24;;;;;;;2.40;2.10;;;;;;;-0.60;42.25;99544.34;5034442;28;21024;-54
2022/03/05 04:33:54;;;;;;;3.88;1.70;;;;;;;-0.60;40.31;99552.06;5034285;28;20053;-55
2022/03/05 04:36:25;;;;;;;5.57;1.80;;;;;;;-0.72;41.42;99536.44;5033920;28;20095;-52
2022/03/05 04:38:57;;;;;;;2.33;1.70;;;;;;;-0.73;41.09;99540.69;5034391;28;20076;-52
2022/03/05 04:41:28;;;;;;;1.85;1.58;;;;;;;-0.76;40.52;99524.41;5033980;28;20065;-54
2022/03/05 04:43:59;;;;;;;3.38;1.83;;;;;;;-0.78;42.28;99526.06;5034427;28;20368;-51
2022/03/05 04:46:29;;;;;;;2.33;1.80;;;;;;;-0.70;41.53;99527.94;5034173;28;20045;-54
2022/03/05 04:49:01;;;;;;;3.40;1.77;;;;;;;-0.84;41.27;99479.81;5033875;28;20453;-54
2022/03/05 04:51:32;;;;;;;2.22;1.70;;;;;;;-0.68;41.57;99481.75;5034174;28;20423;-49
2022/03/05 04:54:05;;;;;;;4.70;2.00;;;;;;;-0.64;40.39;99498.94;5034001;28;20049;-50
2022/03/05 04:56:36;;;;;;;3.35;2.00;;;;;;;-0.71;41.62;99497.13;5033900;28;20049;-51
2022/03/05 04:59:07;;;;;;;2.15;1.77;;;;;;;-0.68;41.18;99492.03;5033765;28;20049;-52
2022/03/05 05:01:38;;;;;;;2.42;1.77;;;;;;;-0.79;41.86;99465.34;5034164;28;20049;-51
2022/03/05 05:04:08;;;;;;;2.53;1.95;;;;;;;-0.49;40.96;99488.94;5033895;28;20111;-50
2022/03/05 05:06:39;;;;;;;2.55;1.75;;;;;;;-0.39;42.02;99478.81;5033735;28;20394;-54
2022/03/05 05:09:11;;;;;;;4.05;2.00;;;;;;;-0.25;42.83;99474.72;5033728;28;20242;-52
2022/03/05 05:11:43;;;;;;;2.88;1.60;;;;;;;-0.17;41.10;99475.72;5034139;28;20058;-52
2022/03/05 05:14:13;;;;;;;3.50;1.98;;;;;;;-0.37;42.00;99472.00;5033284;28;20057;-51
2022/03/05 05:16:44;;;;;;;2.58;1.85;;;;;;;-0.58;42.10;99442.59;5033773;28;20061;-53
2022/03/05 05:19:27;;;;;;;3.88;1.95;;;;;;;-0.48;42.39;99464.97;5034986;28;20407;-53
2022/03/05 05:21:59;;;;;;;1.98;1.75;;;;;;;-0.88;43.45;99442.97;5036567;28;20049;-54
2022/03/05 05:24:33;;;;;;;2.42;2.03;;;;;;;-0.79;43.54;99452.53;5036769;28;20053;-53
2022/03/05 05:27:05;;;;;;;3.35;2.10;;;;;;;-1.13;43.84;99423.75;5036693;28;20355;-53
2022/03/05 05:29:35;;;;;;;2.38;1.83;;;;;;;-1.08;43.67;99455.44;5036103;28;20195;-51
2022/03/05 05:32:10;;;;;;;3.25;2.22;;;;;;;-1.04;44.56;99441.84;5036374;28;20542;-51
2022/03/05 05:34:43;;;;;;;2.88;1.90;;;;;;;-1.15;45.17;99453.59;5036269;28;20103;-52
2022/03/05 05:37:17;;;;;;;2.35;2.00;;;;;;;-1.25;45.37;99442.31;5036135;28;20053;-53
2022/03/05 05:39:50;;;;;;;5.35;2.10;;;;;;;-1.27;47.15;99443.13;5035594;28;20344;-52
2022/03/05 05:42:25;;;;;;;2.45;2.00;;;;;;;-1.29;46.70;99439.72;5036822;28;20061;-53
2022/03/05 05:44:55;;;;;;;3.90;2.20;;;;;;;-1.28;47.30;99451.69;5036493;28;20072;-54
2022/03/05 05:47:27;;;;;;;3.70;2.15;;;;;;;-1.43;47.97;99442.00;5036070;28;20604;-54
2022/03/05 05:49:57;;;;;;;2.63;1.88;;;;;;;-1.54;48.49;99444.38;5035632;28;20108;-52
2022/03/05 05:52:28;;;;;;;2.13;1.63;;;;;;;-1.60;48.10;99449.38;5035880;28;20046;-53
2022/03/05 05:55:00;;;;;;;2.15;1.95;;;;;;;-1.63;48.53;99444.19;5036297;28;20049;-53
2022/03/05 05:57:31;;;;;;;2.28;1.67;;;;;;;-1.80;47.69;99446.41;5036139;28;20065;-53
2022/03/05 06:00:02;;;;;;;2.97;2.33;;;;;;;-1.71;48.60;99450.88;5035865;28;20085;-54
2022/03/05 06:02:33;;;;;;;3.40;1.50;;;;;;;-1.75;46.43;99434.56;5035650;28;20363;-50
2022/03/05 06:05:04;;;;;;;3.25;2.10;;;;;;;-1.91;47.60;99448.75;5037356;28;20250;-53
2022/03/05 06:07:34;;;;;;;3.83;2.17;;;;;;;-1.76;48.96;99437.97;5036774;28;20089;-49
2022/03/05 06:10:07;;;;;;;4.65;2.25;;;;;;;-1.68;48.81;99426.16;5036862;28;20071;-54
2022/03/05 06:12:39;;;;;;;2.60;1.92;;;;;;;-1.95;46.16;99390.63;5036618;28;20069;-53
2022/03/05 06:15:10;;;;;;;4.88;2.00;;;;;;;-1.65;45.29;99425.34;5036531;28;20053;-51
2022/03/05 06:17:43;;;;;;;4.97;2.20;;;;;;;-1.66;47.18;99454.38;5036413;28;20072;-52
2022/03/05 06:20:14;;;;;;;2.55;1.95;;;;;;;-1.73;45.04;99453.38;5036478;28;20116;-53
2022/03/05 06:22:45;;;;;;;2.20;1.50;;;;;;;-2.02;43.80;99455.34;5036347;28;20065;-53
2022/03/05 06:25:17;;;;;;;2.65;1.90;;;;;;;-2.20;44.77;99426.00;5036255;28;20239;-51
2022/03/05 06:27:48;;;;;;;3.08;2.10;;;;;;;-2.24;45.25;99418.22;5036567;28;20080;-53
2022/03/05 06:30:19;;;;;;;3.47;2.15;;;;;;;-1.99;47.03;99419.59;5035412;28;20407;-51
2022/03/05 06:32:50;;;;;;;4.53;2.10;;;;;;;-2.06;47.53;99431.38;5036574;28;20053;-52
2022/03/05 06:35:20;;;;;;;4.20;2.05;;;;;;;-1.96;46.28;99445.25;5036082;28;20054;-54
2022/03/05 06:37:51;;;;;;;4.95;1.75;;;;;;;-2.17;43.40;99431.16;5035871;28;20060;-51
2022/03/05 06:40:23;;;;;;;2.40;1.80;;;;;;;-2.84;45.08;99332.50;5035417;28;20267;-52
2022/03/05 06:42:54;;;;;;;2.83;2.10;;;;;;;-2.46;44.50;99439.91;5035617;28;20384;-54
2022/03/05 06:45:25;;;;;;;4.10;2.65;;;;;;;-2.36;46.43;99418.81;5035574;28;20049;-52
2022/03/05 06:47:56;;;;;;;2.40;1.92;;;;;;;-2.46;42.82;99416.88;5035529;28;20069;-53
2022/03/05 06:50:27;;;;;;;4.85;2.08;;;;;;;-2.44;45.56;99410.09;5036158;28;20069;-55
2022/03/05 06:52:57;;;;;;;4.18;1.95;;;;;;;-2.51;44.06;99413.34;5035853;28;20382;-53
2022/03/05 06:55:30;;;;;;;1.88;1.25;;;;;;;-2.70;41.87;99423.16;5035822;28;20243;-56
2022/03/05 06:58:00;;;;;;;3.20;2.08;;;;;;;-2.66;45.34;99430.06;5035709;28;20121;-51
2022/03/05 07:00:31;;;;;;;4.85;2.20;;;;;;;-2.76;45.28;99400.00;5035259;28;20056;-53
2022/03/05 07:03:03;;;;;;;2.95;1.95;;;;;;;-2.53;46.30;99417.56;5035699;28;20053;-55
2022/03/05 07:05:33;;;;;;;4.53;2.58;;;;;;;-2.55;44.03;99406.44;5035392;28;20208;-54
2022/03/05 07:08:04;;;;;;;2.08;1.80;;;;;;;-2.51;43.97;99423.59;5035357;28;20045;-54
2022/03/05 07:10:37;;;;;;;2.45;1.90;;;;;;;-2.63;43.93;99413.94;5035412;28;20080;-50
2022/03/05 07:13:08;;;;;;;2.40;2.10;;;;;;;-2.95;43.31;99374.84;5035300;28;20052;-54
2022/03/05 07:15:39;;;;;;;3.22;1.92;;;;;;;-2.89;44.59;99385.22;5035702;28;20053;-51
2022/03/05 07:18:10;;;;;;;2.83;1.90;;;;;;;-2.90;46.39;99403.91;5035596;28;20045;-51
2022/03/05 07:20:41;;;;;;;4.18;2.53;;;;;;;-2.86;43.77;99395.50;5035499;28;20128;-52
2022/03/05 07:23:12;;;;;;;3.85;1.80;;;;;;;-2.83;46.40;99386.19;5034637;28;20445;-56
2022/03/05 07:25:44;;;;;;;2.20;1.90;;;;;;;-2.84;45.84;99398.97;5035008;28;20076;-55
2022/03/05 07:28:15;;;;;;;3.08;2.38;;;;;;;-2.92;46.50;99378.34;5033622;28;20053;-55
2022/03/05 07:30:46;;;;;;;13.52;7.22;;;;;;;-2.98;46.46;99385.00;5035300;28;20067;-51
2022/03/05 07:33:17;;;;;;;5.03;4.53;;;;;;;-3.13;49.16;99376.13;5035015;28;20053;-54
2022/03/05 07:35:47;;;;;;;3.00;2.28;;;;;;;-2.97;48.10;99402.03;5035103;28;20060;-51
2022/03/05 07:38:18;;;;;;;2.55;1.80;;;;;;;-2.87;48.18;99398.88;5033812;28;20112;-53
2022/03/05 07:40:50;;;;;;;3.90;2.35;;;;;;;-2.95;47.79;99397.84;5035015;28;20231;-55
2022/03/05 07:43:21;;;;;;;5.90;2.67;;;;;;;-2.98;47.79;99428.44;5033454;28;20259;-52
2022/03/05 07:45:52;;;;;;;2.03;1.70;;;;;;;-3.14;46.89;99401.66;5033864;28;20116;-53
2022/03/05 07:48:23;;;;;;;5.63;2.22;;;;;;;-3.19;48.59;99411.75;5033193;28;20084;-52
2022/03/05 07:50:54;;;;;;;2.67;1.83;;;;;;;-3.38;49.58;99404.44;5034358;28;20518;-51
2022/03/05 07:53:24;;;;;;;2.78;2.08;;;;;;;-3.36;46.61;99411.31;5034302;28;20315;-53
2022/03/05 07:56:00;;;;;;;15.98;7.93;;;;;;;-3.43;47.71;99417.09;5033851;28;20081;-52
2022/03/05 07:58:31;;;;;;;7.47;4.28;;;;;;;-3.58;48.54;99417.56;5034961;28;20053;-52
2022/03/05 08:01:02;;;;;;;5.28;2.50;;;;;;;-3.69;46.73;99393.44;5034548;28;20045;-53
2022/03/05 08:03:33;;;;;;;4.43;3.00;;;;;;;-3.77;47.54;99420.44;5034418;28;20301;-54
2022/03/05 08:06:04;;;;;;;3.20;2.20;;;;;;;-3.81;49.04;99398.22;5034805;28;20109;-52
2022/03/05 08:08:35;;;;;;;2.53;1.88;;;;;;;-3.74;49.16;99410.34;5033923;28;20091;-52
2022/03/05 08:11:08;;;;;;;4.35;2.00;;;;;;;-3.72;47.98;99419.75;5034630;28;20042;-53
2022/03/05 08:13:39;;;;;;;4.38;2.40;;;;;;;-3.66;51.08;99413.94;5034451;28;20237;-51
2022/03/05 08:16:10;;;;;;;3.10;2.30;;;;;;;-3.65;49.82;99420.75;5034392;28;20089;-51
2022/03/05 08:18:41;;;;;;;2.40;2.10;;;;;;;-3.58;49.25;99416.69;5034521;28;20075;-51
2022/03/05 08:21:11;;;;;;;3.22;2.00;;;;;;;-3.62;49.80;99419.97;5034295;28;20385;-54
2022/03/05 08:23:42;;;;;;;5.65;2.60;;;;;;;-3.72;50.21;99418.88;5033892;28;20124;-51
2022/03/05 08:26:14;;;;;;;3.05;2.10;;;;;;;-3.73;50.99;99397.59;5034508;28;20088;-51
2022/03/05 08:28:45;;;;;;;2.38;1.83;;;;;;;-3.76;48.67;99411.97;5034387;28;20220;-53
2022/03/05 08:31:16;;;;;;;2.13;1.80;;;;;;;-3.79;51.17;99433.19;5034173;28;20080;-54
2022/03/05 08:33:47;;;;;;;2.20;2.00;;;;;;;-3.72;50.21;99418.88;5033088;28;20045;-54
2022/03/05 08:36:17;;;;;;;3.47;2.00;;;;;;;-3.85;51.14;99375.97;5033829;28;20045;-55
2022/03/05 08:38:48;;;;;;;5.45;1.88;;;;;;;-3.42;51.05;99403.53;5033435;28;20618;-54
2022/03/05 08:41:21;;;;;;;2.65;2.08;;;;;;;-3.42;49.78;99407.75;5033550;28;20068;-52
2022/03/05 08:43:52;;;;;;;5.07;3.10;;;;;;;-3.86;49.06;99369.16;5033966;28;20059;-55
2022/03/05 08:46:23;;;;;;;4.20;2.53;;;;;;;-3.78;49.03;99428.94;5034261;28;20113;-53
2022/03/05 08:48:54;;;;;;;4.20;2.63;;;;;;;-3.80;50.28;99425.47;5034123;28;20351;-54
2022/03/05 08:51:25;;;;;;;3.75;2.20;;;;;;;-3.93;51.13;99439.56;5032768;28;20061;-51
2022/03/05 08:53:55;;;;;;;3.95;2.65;;;;;;;-3.94;51.64;99423.41;5034185;28;20084;-53
2022/03/05 08:56:27;;;;;;;5.03;3.00;;;;;;;-3.90;52.87;99434.53;5034717;28;20217;-51
2022/03/05 08:58:58;;;;;;;2.22;1.85;;;;;;;-3.82;51.32;99422.00;5034192;28;20053;-54
2022/03/05 09:01:30;;;;;;;2.53;1.90;;;;;;;-3.98;49.02;99388.41;5033964;28;20057;-51
2022/03/05 09:04:02;;;;;;;2.35;1.77;;;;;;;-3.92;48.31;99411.56;5034095;28;20049;-51
2022/03/05 09:06:32;;;;;;;6.20;2.65;;;;;;;-4.22;49.01;99385.16;5033539;28;20363;-53
2022/03/05 09:09:04;;;;;;;4.70;2.28;;;;;;;-4.16;50.79;99416.81;5032448;28;20072;-51
2022/03/05 09:11:38;;;;;;;3.35;2.08;;;;;;;-4.46;50.69;99391.28;5033513;28;20129;-51
2022/03/05 09:14:09;;;;;;;3.17;2.25;;;;;;;-4.30;51.40;99443.59;5034209;28;20056;-54
2022/03/05 09:16:40;;;;;;;3.10;2.38;;;;;;;-4.25;53.05;99471.78;5034377;28;20068;-52
2022/03/05 09:19:11;;;;;;;3.88;3.00;;;;;;;-4.09;49.65;99417.88;5033885;28;20231;-54
2022/03/05 09:21:42;;;;;;;2.65;1.95;;;;;;;-4.04;49.87;99430.72;5032927;28;20339;-55
2022/03/05 09:24:13;;;;;;;2.47;1.85;;;;;;;-4.26;50.66;99403.75;5033697;28;20053;-51
2022/03/05 09:26:45;;;;;;;3.88;2.15;;;;;;;-4.15;50.45;99445.75;5032695;28;20083;-50
2022/03/05 09:29:16;;;;;;;2.97;2.38;;;;;;;-4.11;52.00;99450.13;5033119;28;20343;-52
2022/03/05 09:31:47;;;;;;;2.22;1.88;;;;;;;-4.05;52.22;99445.19;5033517;28;20124;-52
2022/03/05 09:34:17;;;;;;;2.40;1.90;;;;;;;-4.06;50.59;99455.38;5033014;28;20056;-52
2022/03/05 09:36:48;;;;;;;6.85;3.90;;;;;;;-4.14;53.59;99470.44;5073623;22;20376;-84
2022/03/05 09:39:22;;;;;;;3.28;2.13;;;;;;;-4.86;53.79;99364.59;5033808;28;20112;-83
2022/03/05 09:42:00;;;;;;;3.65;1.88;;;;;;;-4.14;51.41;99490.84;5029058;28;20058;-83
2022/03/05 09:44:34;;;;;;;3.13;1.67;;;;;;;-4.14;53.36;99501.06;5033156;28;20050;-83
2022/03/05 09:47:07;;;;;;;2.13;1.40;;;;;;;-5.06;52.82;99370.75;5029952;28;20037;-83
2022/03/05 09:49:41;;;;;;;2.20;2.00;;;;;;;-4.17;54.66;99491.63;5020178;28;20076;-83
2022/03/05 09:52:15;;;;;;;5.05;2.40;;;;;;;-4.77;53.29;99404.78;5024022;28;20491;-83
2022/03/05 09:54:49;;;;;;;4.65;1.95;;;;;;;-4.78;48.97;99409.00;5034694;28;20088;-84
2022/03/05 09:57:24;;;;;;;8.13;2.38;;;;;;;-4.48;49.84;99464.31;5038827;28;20054;-83
2022/03/05 10:00:22;;;;;;;2.15;1.83;;;;;;;-4.86;48.57;99415.56;5033797;28;20089;-87
2022/03/05 10:03:26;;;;;;;1.90;1.60;;;;;;;-4.45;50.64;99463.53;5020410;28;20061;-86
2022/03/05 10:06:17;;;;;;;2.25;1.60;;;;;;;-4.88;50.24;99381.50;5032939;28;20049;-84
2022/03/05 10:08:50;;;;;;;2.08;1.70;;;;;;;-4.26;52.44;99493.03;5039193;28;20057;-83
2022/03/05 10:11:21;;;;;;;3.85;2.00;;;;;;;-5.31;49.01;99339.41;5042863;28;20052;-83
2022/03/05 10:14:00;;;;;;;4.72;2.10;;;;;;;-4.47;49.02;99478.78;5028245;28;20050;-84
2022/03/05 10:16:33;;;;;;;4.78;1.83;;;;;;;-4.91;48.65;99419.66;5038221;28;20085;-84
2022/03/05 10:19:17;;;;;;;3.83;2.35;;;;;;;-4.51;50.75;99479.53;5025209;28;20118;-84
2022/03/05 10:22:03;;;;;;;10.63;4.18;;;;;;;-4.93;50.63;99398.34;5036531;28;20045;-84
2022/03/05 10:24:37;;;;;;;3.45;2.40;;;;;;;-4.69;49.21;99474.72;5033559;28;20048;-84
2022/03/05 10:27:11;;;;;;;10.63;4.28;;;;;;;-4.83;49.96;99446.22;5041502;28;20048;-84
2022/03/05 10:29:44;;;;;;;6.10;3.00;;;;;;;-4.81;49.70;99408.91;5035739;28;20056;-84
2022/03/05 10:32:16;;;;;;;1.90;1.70;;;;;;;-4.69;50.34;99440.69;5028741;28;20088;-83
2022/03/05 10:34:57;;;;;;;22.63;8.20;;;;;;;-4.96;49.64;99408.44;5033918;28;20337;-83
2022/03/05 10:37:28;;;;;;;9.35;4.03;;;;;;;-5.05;50.52;99387.75;5032453;28;20400;-83
2022/03/05 10:40:00;;;;;;;2.72;2.13;;;;;;;-4.79;50.66;99437.00;5036733;28;20057;-83
2022/03/05 10:42:31;;;;;;;3.88;2.17;;;;;;;-4.95;50.67;99440.72;5023504;28;20054;-83
2022/03/05 10:45:06;;;;;;;2.92;1.92;;;;;;;-4.77;52.04;99415.84;5035017;28;20052;-83
2022/03/05 10:47:45;;;;;;;6.38;2.47;;;;;;;-5.35;53.00;99314.66;5036252;28;20056;-83
2022/03/05 10:50:24;;;;;;;3.60;2.00;;;;;;;-5.03;54.44;99346.22;4970352;28;20062;-83
2022/03/05 10:52:57;;;;;;;2.53;1.75;;;;;;;-4.66;53.55;99422.97;5023782;28;20053;-83
2022/03/05 10:55:28;;;;;;;4.07;2.00;;;;;;;-4.66;54.10;99394.94;5030880;28;20092;-84
2022/03/05 10:58:05;;;;;;;3.00;2.40;;;;;;;-4.80;54.24;99349.47;5030047;28;20053;-84
2022/03/05 11:00:37;;;;;;;1.80;1.40;;;;;;;-4.78;52.94;99368.22;5037883;28;20072;-84
2022/03/05 11:03:09;;;;;;;4.13;1.98;;;;;;;-5.07;52.57;99353.72;5032823;28;20076;-83
2022/03/05 11:08:18;;;;;;;3.17;1.92;;;;;;;-4.60;53.02;99420.59;5124196;22;20061;-50
2022/03/05 11:10:50;;;;;;;3.20;1.92;;;;;;;-4.49;55.00;99391.19;5045686;28;20063;-53
2022/03/05 11:13:23;;;;;;;3.15;2.17;;;;;;;-4.42;54.52;99341.22;5046396;28;20056;-51
2022/03/05 11:15:55;;;;;;;4.53;2.50;;;;;;;-4.36;55.49;99408.59;5046025;28;20053;-50
2022/03/05 11:18:26;;;;;;;1.98;1.60;;;;;;;-4.46;52.60;99358.13;5045136;28;20115;-50
2022/03/05 11:20:57;;;;;;;3.22;2.00;;;;;;;-4.59;54.73;99350.97;5045409;28;20761;-53
2022/03/05 11:23:28;;;;;;;3.40;2.05;;;;;;;-4.78;54.88;99378.44;5045507;28;20095;-54
2022/03/05 11:26:00;;;;;;;6.60;2.47;;;;;;;-4.83;54.89;99359.59;5045202;28;20059;-53
2022/03/05 11:28:37;;;;;;;2.38;1.80;;;;;;;-5.04;55.72;99292.66;5044123;28;20341;-50
2022/03/05 11:31:31;;;;;;;1.40;1.30;;;;;;;-4.71;55.67;99354.00;5044988;28;20109;-51
2022/03/05 11:34:13;;;;;;;3.83;1.95;;;;;;;-4.99;54.47;99294.56;5045651;28;20075;-49
2022/03/05 11:36:45;;;;;;;2.25;1.73;;;;;;;-4.57;53.89;99309.41;5045301;28;20091;-53
2022/03/05 11:39:20;;;;;;;2.97;1.80;;;;;;;-4.61;55.00;99314.34;5045640;28;20331;-51
2022/03/05 11:42:01;;;;;;;3.25;2.08;;;;;;;-4.66;54.76;99305.72;5045351;28;20220;-53
2022/03/05 11:44:41;;;;;;;5.63;2.67;;;;;;;-4.70;55.71;99306.44;5044367;28;20061;-49
2022/03/05 11:47:32;;;;;;;4.10;2.78;;;;;;;-4.78;54.25;99275.63;5044963;28;20045;-50
2022/03/05 11:50:16;;;;;;;2.58;1.80;;;;;;;-4.60;53.83;99316.06;5044526;28;20076;-54
2022/03/05 11:53:08;;;;;;;2.22;1.70;;;;;;;-4.49;54.63;99304.50;5044947;28;20049;-52
2022/03/05 11:55:45;;;;;;;3.75;2.42;;;;;;;-4.38;55.99;99282.72;5044841;28;20131;-51
2022/03/05 11:58:30;;;;;;;5.63;2.60;;;;;;;-4.23;56.23;99301.81;5044754;28;20064;-53
2022/03/05 12:01:00;;;;;;;2.85;1.70;;;;;;;-4.18;55.40;99307.91;5044784;28;20046;-52
2022/03/05 12:03:44;;;;;;;4.20;2.13;;;;;;;-4.41;56.78;99252.03;5044769;28;20060;-52